Date,TemperatureHighF,TemperatureAvgF,TemperatureLowF,DewpointHighF,DewpointAvgF,DewpointLowF,HumidityHigh,HumidityAvg,HumidityLow,PressureMaxIn,PressureMinIn,WindSpeedMaxMPH,WindSpeedAvgMPH,GustSpeedMaxMPH,PrecipitationSumIn
2013-1-1,26,13,7,10,4,1,78,67,46,30.03,29.94,13,1,13,0.00
2013-1-2,33,20,8,16,10,1,74,65,43,30.00,29.88,3,1,8,0.00
2013-1-3,28,24,16,22,18,11,84,79,72,30.06,29.87,5,2,11,0.00
2013-1-4,36,23,12,22,16,6,83,74,57,30.03,29.90,6,3,16,0.00
2013-1-5,42,29,17,32,25,14,92,84,61,30.05,29.73,5,1,14,0.00
2013-1-6,35,28,18,31,22,15,89,80,70,30.13,29.70,6,2,13,0.00
2013-1-7,44,29,16,26,20,12,87,73,49,30.12,29.89,5,1,11,0.00
2013-1-8,44,34,26,31,27,22,85,73,58,29.96,29.81,4,1,11,0.00
2013-1-9,48,37,27,31,26,21,80,66,39,30.30,29.78,8,2,18,0.00
2013-1-10,27,24,22,22,20,18,85,81,78,30.32,30.28,1,0,2,0.02
2013-1-20,22,14,9,9,2,-1,64,57,46,30.10,29.73,8,3,15,0.00
2013-1-21,12,7,0,2,-4,-10,77,60,45,30.06,29.92,7,3,13,0.00
2013-1-22,11,3,-5,-4,-8,-14,69,60,48,30.17,30.06,4,2,9,0.00
2013-1-23,18,12,6,12,4,-5,81,68,56,30.15,29.89,4,2,10,0.00
2013-1-24,22,12,2,9,1,-6,69,62,50,30.43,30.16,3,1,7,0.00
2013-1-25,25,20,16,18,12,4,83,70,51,30.18,29.77,4,1,8,0.00
2013-1-26,34,20,8,15,9,3,79,64,40,30.19,29.99,2,0,6,0.01
2013-1-27,35,28,23,33,22,15,93,79,65,30.17,29.71,4,1,8,0.00
2013-1-28,46,41,35,45,38,32,96,92,87,29.78,29.61,4,1,13,0.00
2013-1-29,62,52,37,58,50,36,98,94,86,29.67,29.24,4,1,10,0.00
2013-1-30,42,31,17,41,28,12,96,90,77,29.43,29.05,7,1,15,0.00
2013-1-31,18,12,4,13,5,-2,81,74,67,29.94,29.43,0,0,0,0.00
2013-2-1,4,0,-3,-3,-7,-9,82,73,69,30.12,29.94,24,0,100,0.00
2013-2-2,8,2,1,1,-6,-7,88,76,59,29.96,29.81,0,0,0,0.00
2013-2-3,25,15,4,13,8,-3,83,73,57,30.55,29.75,0,0,0,0.00
2013-2-4,19,17,17,16,14,13,88,86,84,29.84,29.72,0,0,0,0.00
2013-2-15,34,24,17,23,13,6,83,63,47,29.99,29.79,3,1,8,0.00
2013-2-16,19,13,8,10,3,0,74,64,48,30.00,29.93,4,1,9,0.00
2013-2-17,36,19,5,14,5,-2,76,57,31,30.02,29.81,3,1,7,0.00
2013-2-18,52,38,26,43,30,13,92,71,55,29.81,29.23,5,2,10,0.01
2013-2-19,29,15,9,26,8,-1,89,75,64,29.97,29.35,0,0,0,0.00
2013-2-20,26,14,6,13,5,-1,79,67,56,30.17,29.97,0,0,0,0.00
2013-2-21,27,24,13,23,19,8,85,81,77,30.19,29.84,5,0,17,0.00
2013-2-22,35,28,24,31,25,22,93,90,84,29.84,29.61,6,2,12,0.00
2013-2-24,47,28,14,27,19,10,85,69,44,29.96,29.80,2,0,5,0.00
2013-2-25,50,30,15,30,22,12,89,75,44,29.99,29.81,4,1,8,0.00
2013-2-26,35,33,31,31,29,26,96,86,70,29.81,29.37,10,3,24,0.01
2013-2-27,39,33,31,38,31,30,97,95,92,29.53,28.88,3,0,7,0.00
2013-2-28,36,32,26,30,28,20,94,85,71,29.88,28.89,4,0,9,0.00
2013-3-1,28,25,24,22,20,18,86,80,78,30.00,28.73,0,0,0,0.00
2013-3-2,42,27,20,23,17,15,82,68,45,30.01,29.33,4,0,8,0.00
2013-3-3,29,25,13,16,14,7,82,63,30,29.97,29.25,2,0,4,0.00
2013-3-4,21,18,9,16,13,5,85,74,60,29.94,29.20,4,1,9,0.00
2013-3-5,30,23,21,28,19,16,94,87,74,29.84,29.02,6,2,11,0.00
2013-3-6,37,31,26,28,25,22,90,80,69,30.08,29.18,3,1,8,0.00
2013-3-7,49,33,23,28,22,18,81,66,41,29.57,29.46,4,1,8,0.00
2013-4-10,39,38,35,38,36,34,97,94,92,29.85,29.66,8,3,17,0.00
2013-4-11,41,39,36,40,38,34,97,96,94,29.73,29.39,9,3,16,0.00
2013-4-12,44,39,35,40,34,28,97,84,73,29.65,29.37,7,2,14,0.00
2013-4-13,43,37,31,30,27,25,83,68,51,29.81,29.64,5,2,12,0.00
2013-4-14,64,44,33,47,36,28,85,72,54,29.84,29.48,7,2,15,0.00
2013-4-15,68,56,42,54,47,39,89,74,53,29.80,29.47,7,2,13,0.01
2013-4-16,62,45,36,40,35,32,91,71,40,30.10,29.78,4,1,8,0.00
2013-4-17,43,42,39,42,36,31,97,82,62,30.14,29.62,8,2,14,0.00
2013-4-18,44,44,43,43,43,42,97,97,97,29.66,29.63,1,0,4,0.00
2013-4-20,50,40,31,25,22,18,76,51,32,30.24,30.03,6,2,11,0.00
2013-4-21,52,42,30,30,26,22,77,55,37,30.33,29.50,5,1,14,0.00
2013-4-22,71,54,41,42,33,29,74,47,27,30.14,29.25,5,1,12,0.01
2013-4-23,50,50,50,34,33,33,53,53,52,29.90,29.26,1,1,3,0.01
2013-4-24,55,50,43,34,33,25,59,52,36,29.91,29.26,98,1,98,0.01
2013-4-25,56,48,38,36,33,28,86,57,39,30.14,29.26,7,1,14,0.01
2013-4-26,72,53,35,46,36,27,78,53,37,30.14,29.26,5,1,16,0.01
2013-4-27,72,54,44,49,38,34,87,56,38,30.10,29.26,5,1,11,0.02
2013-4-28,63,54,51,51,44,40,76,70,62,29.84,29.73,3,0,6,0.00
2013-4-29,76,63,50,55,52,47,91,68,42,29.73,29.59,4,1,8,0.00
2013-4-30,88,74,62,60,57,53,79,58,32,29.76,29.58,4,2,11,0.00
2013-5-1,89,74,51,59,54,44,77,52,26,29.99,29.77,4,1,11,0.00
2013-5-2,61,49,41,47,40,35,82,72,54,30.07,29.97,7,2,17,0.02
2013-5-3,50,43,38,47,41,35,94,90,85,30.00,29.80,4,2,14,0.09
2013-5-4,73,60,46,54,48,43,92,66,45,29.87,29.79,7,1,11,0.00
2013-5-5,73,59,46,50,44,38,81,59,39,29.88,29.82,7,1,12,0.00
2013-5-6,52,51,50,41,40,37,68,66,58,29.86,29.83,2,0,4,0.00
2013-5-7,51,51,51,41,41,41,67,67,67,29.84,29.84,1,1,3,0.00
2013-5-8,51,51,51,41,41,41,67,67,67,29.84,29.84,1,1,3,0.00
2013-5-9,51,51,51,41,41,41,67,67,67,29.84,29.84,1,1,3,0.00
2013-7-2,76,64,57,57,54,51,87,72,47,29.93,29.89,2,0,6,0.00
2013-7-3,71,65,60,65,60,55,91,84,76,29.90,29.85,2,0,4,0.00
2013-7-4,90,73,57,69,63,55,97,72,45,29.93,29.85,2,0,2,0.00
2013-7-5,90,75,62,70,62,57,90,68,42,29.92,29.85,2,0,4,0.00
2013-7-6,91,77,64,71,66,61,91,71,49,29.90,29.80,1,0,3,0.00
2013-7-7,93,81,70,72,69,65,88,69,50,29.84,29.77,2,0,4,0.00
2013-7-8,77,75,71,74,71,68,95,88,75,29.83,29.77,1,0,2,0.26
2013-7-9,89,74,69,80,72,68,98,93,73,29.83,29.76,3,0,8,0.01
2013-7-24,79,75,70,57,54,52,57,47,41,29.91,29.88,3,1,7,0.00
2013-7-26,68,67,65,66,64,61,92,91,91,29.74,29.73,1,0,2,0.34